Aviation Digital Data Service (ADDS)

Output produced by METARs form (1243 UTC 15 November 2018)
found at http://www.aviationweather.gov/metar/data/
 
TAF SLCO 151000Z 1512/1612 33008KT 9999 SCT017 FEW020CB BKN080 TX33/ 1520Z
TN22/1610Z 
     TEMPO 1517/1521 SHRA 
     BECMG 1523/1602 00000KT SCT015
       
TAF SLCB 151000Z 1512/1612 00000KT 9999 FEW030 TX28/1519Z TN15/1610Z 
     BECMG 1514/1516 07006KT FEW033 SCT080 
     TEMPO 1519/1521 FEW036CB 
     BECMG 1521/1523 SCT030 SCT070
       
TAF SLLP 151000Z 1512/1612 12005KT 9999 SCT015 TX19/1520Z TN03/1610Z 
     TEMPO 1518/1522 04010G20KT 6000 VCTSSH FEW020CB 
     BECMG 1523/1601 07005KT 
     TEMPO 1605/1609 3000E VCFG
       
TAF SLPS 151000Z 1512/1612 00000KT 9999 SCT023 BKN070 TX33/1519Z TN25 /1610Z 
     BECMG 1518/1520 06006KT BKN070 
     BECMG 1523/1601 00000KT SCT070
       
TAF SLET 151000Z 1512/1612 VRB02KT 9999 BKN025 BKN070 TX30/1515Z TN20 /1610Z 
     BECMG 1515/1518 34010KT SCT023 
     BECMG 1600/1603 32005KT BKN070 
     TEMPO 1606/1609 NSC
       
TAF SLVR 151000Z 1512/1612 VRB02KT 9999 BKN025 BKN070 TX30/1515Z TN20 /1610Z 
     BECMG 1515/1518 34010KT SCT023 
     BECMG 1600/1603 32005KT BKN070 
     TEMPO 1606/1609 NSC
       
TAF SLTJ 151000Z 1512/1612 17005KT 9999 BKN025 TX25/1519Z TN15/1610Z 
     BECMG 1514/1516 07015KT SCT030 BKN070 
     TEMPO 1520/1522 07008KT 
     BECMG 1600/1602 07008KT BKN025 BKN070
       
TAF SLTR 151000Z 1512/1612 30008KT 9999 SCT020 FEW023CB BKN080 TX32/ 1520Z
TN23/1610Z 
     TEMPO 1517/1521 8000 SHRA 
     BECMG 1523/1602 00000KT SCT015